Time;durP1;ratioP1;P1;durP2;ratioP2;P2;SDS_P1;SDS_P2;PMS_P1;PMS_P2;Temp;Humidity;BMP_temperature;BMP_pressure;BME280_temperature;BME280_humidity;BME280_pressure;Samples;Min_cycle;Max_cycle;Signal;HPM_P1;HPM_P2
2024/01/12 00:00:08;;;;;;;1.60;1.30;;;;;;;1.37;75.07;95183.19;5134089;27;20562;-55
2024/01/12 00:02:38;;;;;;;1.57;1.47;;;;;;;1.44;75.54;95176.88;5134337;27;20980;-55
2024/01/12 00:05:08;;;;;;;2.10;2.00;;;;;;;1.40;74.96;95174.88;5133514;27;20471;-55
2024/01/12 00:07:37;;;;;;;1.27;1.20;;;;;;;1.50;74.87;95167.34;5133775;27;20995;-55
2024/01/12 00:10:08;;;;;;;1.83;1.70;;;;;;;1.54;74.45;95171.16;5133878;27;20447;-55
2024/01/12 00:12:37;;;;;;;0.70;0.70;;;;;;;1.45;74.06;95157.56;5134179;27;20824;-55
2024/01/12 00:15:07;;;;;;;1.73;1.63;;;;;;;1.47;74.94;95193.94;5133653;27;20441;-55
2024/01/12 00:17:35;;;;;;;1.70;1.60;;;;;;;1.47;74.88;95167.81;5133485;27;20439;-55
2024/01/12 00:20:06;;;;;;;2.60;2.33;;;;;;;1.27;76.36;95157.53;5134067;27;20816;-55
2024/01/12 00:22:35;;;;;;;0.57;0.40;;;;;;;1.37;75.58;95157.06;5133634;27;20840;-56
2024/01/12 00:25:05;;;;;;;2.30;2.20;;;;;;;1.41;75.53;95163.44;5133793;27;20955;-55
2024/01/12 00:27:34;;;;;;;5.30;1.93;;;;;;;1.12;76.79;95163.09;5133570;27;20858;-55
2024/01/12 00:30:03;;;;;;;3.53;1.10;;;;;;;0.79;79.92;95169.59;5132468;27;20516;-55
2024/01/12 00:32:31;;;;;;;4.43;0.90;;;;;;;0.43;82.86;95144.19;5133793;27;21018;-55
2024/01/12 00:35:00;;;;;;;3.07;2.17;;;;;;;0.49;85.14;95154.56;5133156;27;20525;-55
2024/01/12 00:37:30;;;;;;;1.67;0.97;;;;;;;0.67;84.13;95176.50;5133737;27;20850;-55
2024/01/12 00:39:59;;;;;;;4.93;2.20;;;;;;;0.37;83.46;95139.81;5132754;27;20430;-55
2024/01/12 00:42:27;;;;;;;2.50;2.30;;;;;;;0.63;81.55;95165.72;5133781;27;20434;-55
2024/01/12 00:44:56;;;;;;;1.27;1.17;;;;;;;0.73;79.32;95155.63;5133110;27;20445;-55
2024/01/12 00:47:25;;;;;;;1.03;1.03;;;;;;;0.85;77.76;95164.34;5133445;27;20823;-55
2024/01/12 00:49:53;;;;;;;2.20;1.20;;;;;;;0.67;78.10;95164.28;5133617;27;20426;-55
2024/01/12 00:52:22;;;;;;;1.17;0.77;;;;;;;0.68;78.67;95163.28;5133229;27;20470;-55
2024/01/12 00:54:52;;;;;;;1.40;0.83;;;;;;;0.74;78.12;95159.78;5132411;27;20438;-55
2024/01/12 00:57:21;;;;;;;2.20;1.43;;;;;;;0.48;78.72;95146.97;5133402;27;20522;-54
2024/01/12 00:59:49;;;;;;;2.13;1.60;;;;;;;0.57;79.27;95158.72;5132658;27;20466;-56
2024/01/12 01:02:18;;;;;;;5.10;0.87;;;;;;;0.41;82.44;95149.59;5133261;27;20811;-55
2024/01/12 01:04:47;;;;;;;2.57;1.27;;;;;;;0.53;82.43;95149.75;5132649;27;20445;-55
2024/01/12 01:07:15;;;;;;;2.10;1.23;;;;;;;0.60;82.38;95153.09;5132727;27;20448;-55
2024/01/12 01:09:44;;;;;;;1.80;1.47;;;;;;;0.63;81.64;95155.28;5133197;27;20474;-55
2024/01/12 01:12:14;;;;;;;1.80;0.73;;;;;;;0.44;81.52;95151.78;5133269;27;20460;-55
2024/01/12 01:14:43;;;;;;;0.80;0.43;;;;;;;0.47;82.45;95138.34;5133154;27;20445;-54
2024/01/12 01:17:11;;;;;;;2.30;0.53;;;;;;;0.32;83.05;95131.81;5131745;27;20452;-55
2024/01/12 01:19:40;;;;;;;6.80;2.73;;;;;;;0.52;83.16;95167.19;5132756;27;20442;-55
2024/01/12 01:22:09;;;;;;;0.43;0.43;;;;;;;0.66;82.24;95156.66;5131785;27;20471;-55
2024/01/12 01:24:38;;;;;;;2.00;0.53;;;;;;;0.47;82.83;95147.97;5132209;27;20470;-55
2024/01/12 01:27:07;;;;;;;0.60;0.60;;;;;;;0.60;82.01;95173.97;5132377;27;20952;-55
2024/01/12 01:29:37;;;;;;;0.97;0.97;;;;;;;0.65;81.26;95161.09;5132214;27;20477;-55
2024/01/12 01:32:06;;;;;;;1.53;1.27;;;;;;;0.58;80.15;95153.28;5132300;27;20438;-55
2024/01/12 01:34:36;;;;;;;5.20;2.00;;;;;;;0.60;80.30;95163.53;5132530;27;20839;-55
2024/01/12 01:37:05;;;;;;;1.10;1.03;;;;;;;0.25;79.90;95112.81;5131922;27;20470;-55
2024/01/12 01:39:34;;;;;;;1.33;0.50;;;;;;;0.48;80.76;95132.09;5131986;27;20495;-55
2024/01/12 01:42:03;;;;;;;0.80;0.67;;;;;;;0.70;80.37;95153.41;5131843;27;21104;-55
2024/01/12 01:44:32;;;;;;;1.93;1.77;;;;;;;0.43;80.75;95152.00;5132146;27;20474;-55
2024/01/12 01:47:02;;;;;;;1.00;0.93;;;;;;;0.47;81.95;95137.53;5132375;27;20928;-55
2024/01/12 01:49:30;;;;;;;1.27;1.20;;;;;;;0.29;80.51;95090.53;5132257;27;20487;-55
2024/01/12 01:51:59;;;;;;;0.90;0.90;;;;;;;0.46;81.05;95110.66;5132166;27;20477;-55
2024/01/12 01:54:28;;;;;;;0.90;0.60;;;;;;;0.56;81.23;95124.03;5131795;27;20442;-54
2024/01/12 01:56:57;;;;;;;0.80;0.80;;;;;;;0.58;81.70;95110.78;5132869;27;20446;-55
2024/01/12 01:59:26;;;;;;;1.47;1.37;;;;;;;0.58;80.79;95110.78;5132692;27;20430;-55
2024/01/12 02:01:55;;;;;;;1.57;0.80;;;;;;;0.38;81.42;95110.13;5132305;27;20470;-55
2024/01/12 02:04:26;;;;;;;11.83;1.07;;;;;;;-0.18;81.56;95024.13;5131416;27;20523;-55
2024/01/12 02:06:55;;;;;;;6.97;2.67;;;;;;;0.34;81.42;95091.50;5132274;27;21068;-55
2024/01/12 02:09:25;;;;;;;2.03;0.93;;;;;;;0.14;81.31;95084.81;5131619;28;20437;-55
2024/01/12 02:11:54;;;;;;;2.53;2.33;;;;;;;0.51;82.64;95110.03;5132189;28;20491;-55
2024/01/12 02:14:23;;;;;;;2.20;0.50;;;;;;;0.48;82.21;95115.69;5132237;27;20505;-55
2024/01/12 02:16:52;;;;;;;1.90;0.57;;;;;;;0.26;82.84;95125.63;5132494;28;20435;-55
2024/01/12 02:19:21;;;;;;;1.47;0.70;;;;;;;0.25;84.44;95123.25;5131857;27;20439;-55
2024/01/12 02:21:51;;;;;;;0.70;0.50;;;;;;;0.22;83.85;95119.25;5132094;28;20825;-55
2024/01/12 02:24:19;;;;;;;0.53;0.40;;;;;;;-0.12;84.68;95070.94;5131984;27;20431;-55
2024/01/12 02:26:48;;;;;;;0.60;0.60;;;;;;;0.11;85.40;95124.31;5131541;27;20449;-55
2024/01/12 02:29:17;;;;;;;1.57;1.47;;;;;;;0.29;85.06;95121.81;5132068;27;20442;-55
2024/01/12 02:31:46;;;;;;;1.10;1.10;;;;;;;0.26;84.60;95115.22;5131525;27;20464;-55
2024/01/12 02:34:15;;;;;;;1.40;1.30;;;;;;;0.13;84.34;95104.09;5132056;27;21048;-56
2024/01/12 02:36:44;;;;;;;2.20;2.07;;;;;;;0.35;83.41;95120.97;5130874;27;20942;-56
2024/01/12 02:39:14;;;;;;;1.83;1.40;;;;;;;0.11;84.12;95119.09;5131730;27;20442;-56
2024/01/12 02:41:43;;;;;;;1.63;1.53;;;;;;;0.24;84.67;95108.59;5131890;27;20822;-55
2024/01/12 02:44:12;;;;;;;3.73;1.10;;;;;;;0.16;85.61;95103.63;5131722;28;20523;-55
2024/01/12 02:46:40;;;;;;;3.17;2.87;;;;;;;-0.21;86.02;95093.03;5131506;28;20438;-55
2024/01/12 02:49:09;;;;;;;8.80;2.93;;;;;;;-0.05;87.18;95104.75;5125643;28;20948;-55
2024/01/12 02:51:38;;;;;;;2.93;1.93;;;;;;;0.16;85.53;95107.06;5131650;27;20438;-55
2024/01/12 02:54:07;;;;;;;3.63;3.43;;;;;;;0.33;84.11;95099.53;5131808;27;20986;-55
2024/01/12 02:56:37;;;;;;;1.63;1.23;;;;;;;0.22;83.33;95092.38;5132044;28;20484;-55
2024/01/12 02:59:06;;;;;;;4.77;0.90;;;;;;;0.31;83.51;95084.09;5131305;28;21543;-55
2024/01/12 03:01:35;;;;;;;6.20;1.23;;;;;;;0.34;82.58;95086.28;5131155;27;20529;-55
2024/01/12 03:04:03;;;;;;;0.93;0.93;;;;;;;0.41;82.38;95083.63;5134712;27;20958;-55
2024/01/12 03:06:32;;;;;;;0.90;0.90;;;;;;;0.37;82.35;95083.25;5135150;27;20954;-55
2024/01/12 03:09:01;;;;;;;2.50;1.47;;;;;;;0.08;82.60;95049.97;5134165;27;20442;-54
2024/01/12 03:11:30;;;;;;;3.33;1.13;;;;;;;0.39;81.81;95070.00;5135897;27;20431;-55
2024/01/12 03:14:00;;;;;;;0.50;0.43;;;;;;;0.52;81.45;95068.09;5134434;27;20517;-55
2024/01/12 03:16:29;;;;;;;0.77;0.77;;;;;;;0.28;82.50;95068.09;5134943;27;20472;-55
2024/01/12 03:18:58;;;;;;;0.67;0.67;;;;;;;-0.07;81.90;95018.22;5134511;27;20810;-55
2024/01/12 03:21:26;;;;;;;6.23;1.00;;;;;;;0.20;81.65;95037.09;5135044;27;20941;-55
2024/01/12 03:23:55;;;;;;;0.67;0.67;;;;;;;0.28;81.45;95070.72;5134698;27;20468;-55
2024/01/12 03:26:24;;;;;;;2.03;1.93;;;;;;;-0.37;83.69;95066.66;5135348;27;20555;-55
2024/01/12 03:28:52;;;;;;;1.57;1.47;;;;;;;-0.28;84.52;95075.84;5134378;27;20529;-55
2024/01/12 03:31:22;;;;;;;0.73;0.73;;;;;;;-0.14;83.36;95054.72;5134595;27;20910;-55
2024/01/12 03:33:51;;;;;;;2.80;1.00;;;;;;;0.10;82.28;95073.22;5134037;27;20434;-55
2024/01/12 03:36:21;;;;;;;1.67;1.57;;;;;;;-0.15;82.73;95055.72;5134641;27;20519;-55
2024/01/12 03:38:49;;;;;;;1.63;0.90;;;;;;;0.13;81.78;95073.59;5134934;27;20833;-54
2024/01/12 03:41:18;;;;;;;4.57;1.17;;;;;;;0.14;81.30;95063.97;5134299;27;20499;-55
2024/01/12 03:43:46;;;;;;;0.40;0.40;;;;;;;0.07;81.30;95060.63;5134556;27;20480;-54
2024/01/12 03:46:15;;;;;;;1.63;1.53;;;;;;;0.03;81.59;95055.03;5134366;27;20434;-55
2024/01/12 03:48:45;;;;;;;1.90;0.90;;;;;;;0.13;80.67;95070.22;5134406;27;20450;-55
2024/01/12 03:51:14;;;;;;;2.10;1.17;;;;;;;0.04;80.96;95072.25;5134441;27;20439;-55
2024/01/12 03:53:43;;;;;;;1.83;0.87;;;;;;;-0.22;81.99;95080.22;5133946;27;20477;-55
2024/01/12 03:56:13;;;;;;;2.17;1.97;;;;;;;-0.14;82.32;95083.38;5134308;27;20506;-54
2024/01/12 03:58:42;;;;;;;1.37;1.27;;;;;;;-0.09;81.79;95080.94;5134365;27;20499;-55
2024/01/12 04:01:11;;;;;;;2.63;1.33;;;;;;;-0.08;82.34;95077.31;5134021;27;20449;-55
2024/01/12 04:03:41;;;;;;;1.60;1.50;;;;;;;-0.48;81.15;94990.03;5134123;27;20474;-55
2024/01/12 04:06:12;;;;;;;2.60;1.30;;;;;;;0.03;81.27;95067.28;5133985;27;20842;-55
2024/01/12 04:08:40;;;;;;;1.10;1.00;;;;;;;-0.12;81.75;95060.53;5134364;27;20499;-55
2024/01/12 04:11:09;;;;;;;2.00;1.73;;;;;;;-0.09;80.50;95072.34;5133256;27;20437;-55
2024/01/12 04:13:39;;;;;;;0.90;0.90;;;;;;;-0.43;81.32;95073.50;5133145;27;20935;-55
2024/01/12 04:16:08;;;;;;;1.67;1.50;;;;;;;-0.85;81.93;95076.66;5106418;27;20460;-54
2024/01/12 04:18:36;;;;;;;1.23;1.17;;;;;;;-1.07;84.55;95078.72;5133194;27;20439;-54
2024/01/12 04:21:05;;;;;;;1.47;1.03;;;;;;;-0.91;85.13;95086.06;5132981;27;20434;-57
2024/01/12 04:23:36;;;;;;;0.90;0.90;;;;;;;-0.80;84.52;95090.66;5133050;27;20558;-55
2024/01/12 04:26:05;;;;;;;0.60;0.50;;;;;;;-0.90;84.62;95089.47;5133680;27;20948;-56
2024/01/12 04:28:34;;;;;;;2.20;1.10;;;;;;;-0.63;83.06;95098.03;5132942;27;20435;-55
2024/01/12 04:31:03;;;;;;;0.70;0.70;;;;;;;-0.65;82.17;95083.41;5133201;27;20939;-55
2024/01/12 04:33:33;;;;;;;1.83;1.73;;;;;;;-0.46;81.83;95097.38;5132641;27;20456;-55
2024/01/12 04:36:01;;;;;;;1.13;1.03;;;;;;;-0.75;80.87;95048.41;5133689;27;20445;-55
2024/01/12 04:38:30;;;;;;;3.10;2.97;;;;;;;-0.41;81.08;95107.16;5133757;27;20458;-56
2024/01/12 04:41:01;;;;;;;2.40;2.30;;;;;;;-0.45;81.58;95104.16;5133631;27;20442;-56
2024/01/12 04:43:29;;;;;;;1.50;1.40;;;;;;;-0.30;80.71;95094.28;5133290;27;20968;-56
2024/01/12 04:45:58;;;;;;;1.57;1.47;;;;;;;-0.28;81.22;95099.28;5121416;27;20436;-55
2024/01/12 04:48:26;;;;;;;1.27;1.17;;;;;;;-0.33;80.52;95081.66;5131883;27;20442;-56
2024/01/12 04:50:56;;;;;;;5.80;2.30;;;;;;;-0.54;81.97;95104.59;5133417;27;20478;-56
2024/01/12 04:53:25;;;;;;;2.40;1.80;;;;;;;-0.43;83.00;95094.31;5131940;27;20533;-55
2024/01/12 04:55:54;;;;;;;2.30;2.20;;;;;;;-0.36;82.96;95097.72;5132969;27;20431;-55
2024/01/12 04:58:24;;;;;;;7.40;1.67;;;;;;;-0.29;82.57;95101.09;5133051;27;20915;-55
2024/01/12 05:00:52;;;;;;;2.77;2.50;;;;;;;-1.21;81.50;94938.56;5131830;27;20446;-55
2024/01/12 05:03:21;;;;;;;1.13;1.13;;;;;;;-0.68;81.52;95023.16;5132802;27;20470;-55
2024/01/12 05:05:49;;;;;;;2.67;2.47;;;;;;;-0.27;83.03;95112.09;5132588;27;20434;-55
2024/01/12 05:08:18;;;;;;;1.50;1.40;;;;;;;-0.22;82.65;95090.63;5133348;27;20457;-55
2024/01/12 05:10:46;;;;;;;1.43;1.43;;;;;;;-0.17;80.89;95083.00;5132865;27;20474;-55
2024/01/12 05:13:15;;;;;;;3.83;1.20;;;;;;;-0.07;81.19;95104.97;5133431;27;20435;-55
2024/01/12 05:15:45;;;;;;;1.70;1.60;;;;;;;-0.19;81.73;95088.41;5132680;27;20934;-55
2024/01/12 05:18:14;;;;;;;2.90;2.13;;;;;;;-0.06;81.93;95111.78;5132887;27;20442;-55
2024/01/12 05:20:43;;;;;;;2.20;2.10;;;;;;;-0.01;81.34;95109.38;5132865;27;20434;-55
2024/01/12 05:23:11;;;;;;;3.47;3.17;;;;;;;-0.09;81.97;95107.00;5132436;27;20466;-56
2024/01/12 05:25:40;;;;;;;5.30;2.70;;;;;;;0.04;81.30;95100.13;5131726;27;20437;-55
2024/01/12 05:28:09;;;;;;;4.43;3.63;;;;;;;0.10;81.00;95115.72;5132099;27;20997;-56
2024/01/12 05:30:38;;;;;;;3.27;1.73;;;;;;;0.06;80.90;95117.13;5131627;27;20441;-55
2024/01/12 05:33:08;;;;;;;1.33;1.23;;;;;;;0.11;80.63;95112.09;5132639;27;20478;-55
2024/01/12 05:35:37;;;;;;;1.33;1.33;;;;;;;0.11;80.95;95106.88;5132441;27;20805;-55
2024/01/12 05:38:05;;;;;;;4.43;1.90;;;;;;;-0.33;80.47;95023.59;5132099;27;20446;-54
2024/01/12 05:40:34;;;;;;;5.17;1.63;;;;;;;-0.17;82.22;95116.84;5132631;27;20498;-55
2024/01/12 05:43:03;;;;;;;7.80;3.50;;;;;;;-0.73;83.58;95116.66;5131772;27;20437;-56
2024/01/12 05:45:31;;;;;;;3.90;3.77;;;;;;;-0.37;85.58;95145.56;5132077;27;20434;-56
2024/01/12 05:48:00;;;;;;;3.63;3.10;;;;;;;0.02;82.64;95126.38;5131669;27;20442;-56
2024/01/12 05:50:30;;;;;;;20.47;3.70;;;;;;;-0.01;81.80;95127.59;5132267;27;20536;-56
2024/01/12 05:52:59;;;;;;;4.50;2.87;;;;;;;0.48;83.88;95129.50;5131846;27;20537;-56
2024/01/12 05:55:27;;;;;;;3.90;3.57;;;;;;;0.56;81.60;95131.84;5131434;27;20494;-55
2024/01/12 05:57:58;;;;;;;3.83;3.53;;;;;;;0.20;80.32;95126.50;5131683;27;20438;-55
2024/01/12 06:00:27;;;;;;;4.80;3.13;;;;;;;0.20;80.61;95123.88;5123397;27;20449;-56
2024/01/12 06:02:55;;;;;;;2.63;2.17;;;;;;;-0.07;82.25;95131.03;5113264;28;20519;-56
2024/01/12 06:05:24;;;;;;;2.13;2.03;;;;;;;0.20;81.64;95130.91;5112187;28;20447;-54
2024/01/12 06:07:54;;;;;;;4.30;3.60;;;;;;;0.32;81.08;95127.41;5123608;28;20820;-54
2024/01/12 06:10:23;;;;;;;5.20;3.63;;;;;;;0.32;80.95;95124.00;5132060;28;20995;-54
2024/01/12 06:12:52;;;;;;;3.03;2.83;;;;;;;0.37;80.48;95126.78;5131797;28;20443;-56
2024/01/12 06:15:21;;;;;;;3.83;2.90;;;;;;;0.52;80.60;95122.84;5131180;27;20455;-55
2024/01/12 06:17:49;;;;;;;3.13;2.33;;;;;;;-0.42;79.86;94978.78;5131175;28;20872;-54
2024/01/12 06:20:19;;;;;;;4.33;1.90;;;;;;;0.61;79.99;95120.78;5131118;27;20442;-55
2024/01/12 06:22:47;;;;;;;4.00;3.17;;;;;;;-0.02;80.77;95060.88;5131028;28;20465;-54
2024/01/12 06:25:17;;;;;;;1.53;1.43;;;;;;;0.57;80.95;95125.63;5132028;27;20470;-54
2024/01/12 06:27:46;;;;;;;6.30;2.77;;;;;;;0.64;80.59;95115.13;5131714;27;20435;-54
2024/01/12 06:30:15;;;;;;;1.70;1.60;;;;;;;0.94;79.68;95130.94;5132066;27;20446;-54
2024/01/12 06:32:44;;;;;;;9.93;3.60;;;;;;;0.81;79.57;95137.06;5131619;28;20464;-55
2024/01/12 06:35:13;;;;;;;6.37;5.80;;;;;;;0.33;80.89;95130.81;5131296;28;20835;-55
2024/01/12 06:37:42;;;;;;;5.87;3.90;;;;;;;0.45;81.22;95147.38;5133167;27;20438;-55
2024/01/12 06:40:12;;;;;;;11.00;4.27;;;;;;;0.36;78.43;95104.31;5135110;27;20438;-54
2024/01/12 06:42:42;;;;;;;2.33;1.93;;;;;;;0.48;78.10;95157.41;5125228;27;20443;-55
2024/01/12 06:45:12;;;;;;;3.73;3.53;;;;;;;0.66;76.68;95144.41;5133958;27;20513;-55
2024/01/12 06:47:41;;;;;;;9.13;3.03;;;;;;;0.74;76.25;95159.78;5135838;27;20445;-55
2024/01/12 06:50:10;;;;;;;2.57;2.37;;;;;;;0.80;75.98;95156.34;5135521;27;20950;-55
2024/01/12 06:52:38;;;;;;;2.37;2.00;;;;;;;0.92;74.70;95151.22;5135855;27;20534;-55
2024/01/12 06:55:08;;;;;;;8.23;2.57;;;;;;;0.93;75.97;95160.66;5135424;27;20972;-55
2024/01/12 06:57:36;;;;;;;3.43;2.93;;;;;;;0.97;76.16;95162.63;5135319;27;20442;-55
2024/01/12 07:00:08;;;;;;;1.20;1.20;;;;;;;1.09;74.75;95162.72;5135753;27;20430;-55
2024/01/12 07:02:36;;;;;;;7.53;3.40;;;;;;;0.74;75.48;95164.22;5135899;27;20869;-55
2024/01/12 07:05:06;;;;;;;5.47;5.07;;;;;;;0.56;75.83;95172.75;5135224;27;20509;-55
2024/01/12 07:07:35;;;;;;;5.17;4.87;;;;;;;-0.65;76.72;94965.50;5134843;27;20455;-55
2024/01/12 07:10:03;;;;;;;5.60;4.33;;;;;;;0.97;75.45;95173.06;5126955;27;20530;-55
2024/01/12 07:12:32;;;;;;;9.80;3.90;;;;;;;0.96;76.24;95171.47;5135633;27;20438;-55
2024/01/12 07:15:01;;;;;;;3.17;2.90;;;;;;;0.92;75.98;95164.28;5135229;27;20466;-55
2024/01/12 07:17:31;;;;;;;1.93;1.83;;;;;;;1.18;75.97;95187.56;5135332;27;20434;-55
2024/01/12 07:20:00;;;;;;;5.30;4.90;;;;;;;1.42;76.47;95184.09;5134942;27;20537;-55
2024/01/12 07:22:28;;;;;;;7.77;4.80;;;;;;;1.80;76.67;95158.59;5135466;27;20546;-56
2024/01/12 07:24:57;;;;;;;8.37;4.33;;;;;;;2.33;76.22;95163.16;5135148;27;21028;-56
2024/01/12 07:27:25;;;;;;;5.10;4.30;;;;;;;2.62;72.69;95185.91;5134727;27;20513;-55
2024/01/12 07:29:54;;;;;;;5.63;3.93;;;;;;;2.99;72.82;95176.09;5135278;27;20438;-55
2024/01/12 07:32:23;;;;;;;11.83;4.83;;;;;;;3.56;72.86;95180.56;5135313;27;20568;-55
2024/01/12 07:34:53;;;;;;;7.13;6.50;;;;;;;3.59;66.84;95151.28;5134785;27;20438;-55
2024/01/12 07:37:22;;;;;;;10.37;6.17;;;;;;;4.69;66.44;95185.97;5132108;27;20499;-56
2024/01/12 07:39:51;;;;;;;7.70;5.27;;;;;;;5.22;64.21;95185.56;5134510;27;20434;-55
2024/01/12 07:42:19;;;;;;;5.90;5.30;;;;;;;5.47;61.65;95196.47;5134921;27;20823;-56
2024/01/12 07:44:49;;;;;;;6.23;5.57;;;;;;;5.88;60.42;95197.06;5134172;27;20488;-55
2024/01/12 07:47:18;;;;;;;4.23;3.83;;;;;;;5.52;60.95;95208.88;5134289;27;20923;-55
2024/01/12 07:49:46;;;;;;;3.53;3.30;;;;;;;6.03;60.08;95203.34;5133690;27;20441;-55
2024/01/12 07:52:16;;;;;;;4.47;3.67;;;;;;;6.53;57.57;95194.50;5133113;27;21016;-55
2024/01/12 07:54:48;;;;;;;5.20;5.00;;;;;;;7.18;55.96;95200.41;5134243;27;20457;-55
2024/01/12 07:57:17;;;;;;;10.50;2.57;;;;;;;7.40;55.40;95145.75;5134458;27;20541;-55
2024/01/12 07:59:45;;;;;;;4.57;4.17;;;;;;;7.62;55.74;95133.22;5133766;27;20442;-55
2024/01/12 08:02:15;;;;;;;5.50;2.20;;;;;;;8.42;53.29;95184.88;5134222;27;20919;-56
2024/01/12 08:04:44;;;;;;;6.17;2.47;;;;;;;8.80;52.20;95186.31;5133802;27;20482;-56
2024/01/12 08:07:13;;;;;;;2.93;2.63;;;;;;;8.45;52.15;95147.34;5134208;27;20438;-56
2024/01/12 08:09:43;;;;;;;17.67;4.77;;;;;;;8.40;51.50;95165.81;5134415;27;20461;-56
2024/01/12 08:12:12;;;;;;;6.97;4.50;;;;;;;8.74;52.18;95167.00;5134492;27;20452;-56
2024/01/12 08:14:39;;;;;;;3.97;3.60;;;;;;;9.46;50.69;95173.94;5134228;27;20934;-55
2024/01/12 08:17:08;;;;;;;6.73;4.83;;;;;;;8.87;51.13;95171.78;5133191;27;20487;-55
2024/01/12 08:19:36;;;;;;;5.70;3.37;;;;;;;9.70;51.23;95167.03;5133666;27;20442;-54
2024/01/12 08:22:05;;;;;;;4.43;4.03;;;;;;;9.37;49.52;95168.38;5133976;27;20453;-54
2024/01/12 08:24:34;;;;;;;2.83;2.63;;;;;;;10.40;49.65;95171.38;5133906;27;20470;-54
2024/01/12 08:27:04;;;;;;;3.67;3.40;;;;;;;9.74;47.96;95176.00;5132681;27;20911;-52
2024/01/12 08:29:33;;;;;;;8.30;4.33;;;;;;;9.94;49.84;95170.69;5133254;27;20585;-54
2024/01/12 08:32:01;;;;;;;2.57;2.47;;;;;;;9.67;48.63;95169.41;5133504;27;20446;-54
2024/01/12 08:34:30;;;;;;;10.03;3.10;;;;;;;10.26;48.34;95182.81;5134380;27;20445;-55
2024/01/12 08:36:59;;;;;;;3.63;3.07;;;;;;;9.68;49.26;95184.25;5133248;27;20491;-56
2024/01/12 08:39:29;;;;;;;4.63;3.20;;;;;;;8.79;49.95;95190.78;5133888;27;20442;-56
2024/01/12 08:41:57;;;;;;;2.80;2.57;;;;;;;10.48;48.42;95181.41;5132547;27;20438;-57
2024/01/12 08:44:28;;;;;;;16.53;3.07;;;;;;;10.98;47.97;95188.31;5134134;27;20487;-57
2024/01/12 08:46:56;;;;;;;2.07;1.90;;;;;;;10.93;47.50;95172.44;5133954;27;20775;-58
2024/01/12 08:49:24;;;;;;;2.83;2.63;;;;;;;10.61;47.96;95183.47;5132333;27;20446;-58
2024/01/12 08:51:52;;;;;;;1.83;1.73;;;;;;;11.11;48.34;95179.75;5116591;27;20825;-59
2024/01/12 08:54:21;;;;;;;2.50;2.30;;;;;;;11.54;48.25;95187.91;5133018;27;20838;-58
2024/01/12 08:56:50;;;;;;;1.00;1.00;;;;;;;12.19;44.57;95117.50;5133039;27;20446;-59
2024/01/12 08:59:20;;;;;;;3.40;2.07;;;;;;;12.42;45.46;95188.44;5132540;27;20446;-59
2024/01/12 09:01:50;;;;;;;1.90;1.70;;;;;;;12.34;43.81;95191.72;5131673;27;20426;-59
2024/01/12 09:04:19;;;;;;;4.17;2.00;;;;;;;13.24;43.61;95184.47;5133385;27;20840;-58
2024/01/12 09:06:48;;;;;;;1.80;1.70;;;;;;;12.79;44.20;95188.50;5132437;27;20561;-59
2024/01/12 09:09:17;;;;;;;3.60;2.60;;;;;;;12.74;42.83;95191.25;5133072;27;20550;-58
2024/01/12 09:11:45;;;;;;;6.63;2.67;;;;;;;12.85;43.72;95173.28;5132672;27;20521;-58
2024/01/12 09:14:14;;;;;;;15.33;1.90;;;;;;;13.02;43.08;95179.69;5132993;27;20442;-58
2024/01/12 09:16:43;;;;;;;14.83;3.40;;;;;;;12.30;43.66;95183.50;5132061;27;20434;-58
2024/01/12 09:19:13;;;;;;;2.10;2.00;;;;;;;13.13;42.08;95173.16;5132850;27;20525;-57
2024/01/12 09:21:42;;;;;;;2.00;1.83;;;;;;;13.68;40.87;95187.50;5106694;27;20494;-57
2024/01/12 09:24:11;;;;;;;1.37;1.00;;;;;;;13.90;40.60;95179.69;5132990;27;20489;-57
2024/01/12 09:26:40;;;;;;;10.20;3.83;;;;;;;14.30;40.28;95172.81;5133037;27;20469;-57
2024/01/12 09:29:09;;;;;;;2.53;1.90;;;;;;;14.80;39.87;95170.28;5126084;27;20469;-57
2024/01/12 09:31:38;;;;;;;3.47;3.27;;;;;;;14.68;38.16;95161.97;5126189;27;20444;-57
2024/01/12 09:34:07;;;;;;;8.60;4.50;;;;;;;14.62;37.89;95159.41;5132951;27;20865;-57
2024/01/12 09:36:37;;;;;;;4.23;2.40;;;;;;;14.36;38.65;95171.66;5132276;27;20487;-56
2024/01/12 09:39:06;;;;;;;3.40;3.20;;;;;;;14.13;38.71;95164.59;5133024;27;20962;-56
2024/01/12 09:41:45;;;;;;;4.40;2.87;;;;;;;13.75;39.44;95165.81;5130124;27;21006;-56
2024/01/12 09:44:18;;;;;;;19.37;3.73;;;;;;;14.43;38.55;95158.72;5105812;27;20515;-56
2024/01/12 09:46:55;;;;;;;7.73;2.43;;;;;;;14.75;39.15;95159.72;5132078;27;20470;-57
2024/01/12 09:49:24;;;;;;;3.10;2.90;;;;;;;15.16;36.86;95150.50;5132033;27;20983;-58
2024/01/12 09:51:55;;;;;;;2.20;1.30;;;;;;;15.52;36.96;95139.03;5131805;27;20518;-55
2024/01/12 09:54:24;;;;;;;10.93;1.63;;;;;;;15.52;35.38;95137.16;5132646;27;20442;-55
2024/01/12 09:56:53;;;;;;;3.93;1.67;;;;;;;15.42;35.05;95124.00;5131892;27;20533;-55
2024/01/12 09:59:24;;;;;;;2.67;1.10;;;;;;;15.93;35.20;95136.94;5132515;27;20526;-55
2024/01/12 10:01:53;;;;;;;2.93;1.83;;;;;;;15.83;35.46;95140.66;5118449;27;20437;-55
2024/01/12 10:04:22;;;;;;;2.20;2.07;;;;;;;15.91;35.77;95120.41;5131996;27;21122;-56
2024/01/12 10:06:54;;;;;;;3.07;2.67;;;;;;;15.95;35.55;95123.25;5131714;28;20522;-56
2024/01/12 10:09:24;;;;;;;5.77;3.90;;;;;;;16.59;35.25;95127.16;5131285;27;20935;-56
2024/01/12 10:11:54;;;;;;;1.40;1.30;;;;;;;16.57;34.01;95122.09;5133403;27;20462;-56
2024/01/12 10:14:25;;;;;;;2.53;2.33;;;;;;;16.23;34.17;95061.25;5136247;27;20430;-56
2024/01/12 10:16:55;;;;;;;4.57;1.13;;;;;;;16.51;33.79;95107.25;5136569;27;20441;-56
2024/01/12 10:19:23;;;;;;;5.33;2.60;;;;;;;16.90;33.94;95117.91;5136019;27;20828;-56
2024/01/12 10:21:52;;;;;;;1.73;1.20;;;;;;;17.36;32.15;95108.47;5135818;27;20448;-56
2024/01/12 10:24:22;;;;;;;7.23;2.27;;;;;;;16.78;32.91;95116.94;5135591;27;20444;-56
2024/01/12 10:26:52;;;;;;;1.97;0.63;;;;;;;16.82;31.88;95116.03;5135673;27;20524;-55
2024/01/12 10:29:21;;;;;;;1.30;1.20;;;;;;;15.96;33.92;95104.25;5136542;27;20434;-56
2024/01/12 10:31:50;;;;;;;1.30;1.20;;;;;;;16.48;33.46;95105.22;5136142;27;21167;-56
2024/01/12 10:34:21;;;;;;;3.30;0.50;;;;;;;16.56;32.70;95050.16;5135565;27;20438;-55
2024/01/12 10:36:53;;;;;;;2.63;1.63;;;;;;;16.72;32.43;95102.91;5134751;27;20423;-56
2024/01/12 10:39:23;;;;;;;0.80;0.63;;;;;;;17.36;31.88;95076.31;5135164;27;20430;-56
2024/01/12 10:41:53;;;;;;;1.03;1.03;;;;;;;18.35;29.97;95100.03;5135646;27;20474;-56
2024/01/12 10:44:23;;;;;;;0.93;0.90;;;;;;;17.30;30.78;95099.03;5135960;27;20434;-56
2024/01/12 10:46:57;;;;;;;2.13;2.00;;;;;;;17.51;30.46;95099.94;5135802;27;20560;-56
2024/01/12 10:49:27;;;;;;;1.77;1.50;;;;;;;17.74;30.86;95087.94;5135363;27;20445;-56
2024/01/12 10:52:06;;;;;;;0.70;0.70;;;;;;;18.23;28.22;95087.31;5135674;27;20553;-56
2024/01/12 10:54:47;;;;;;;1.00;0.80;;;;;;;18.88;28.08;95083.31;5135469;27;20438;-56
2024/01/12 10:57:16;;;;;;;0.50;0.40;;;;;;;19.34;28.80;95052.78;5135999;27;20438;-56
2024/01/12 10:59:46;;;;;;;0.70;0.50;;;;;;;19.69;27.61;95075.53;5135778;27;20442;-56
2024/01/12 11:02:15;;;;;;;1.33;1.23;;;;;;;19.18;27.12;95028.41;5135760;27;20845;-56
2024/01/12 11:04:45;;;;;;;0.67;0.57;;;;;;;19.31;26.63;95064.97;5135556;27;20465;-56
2024/01/12 11:07:15;;;;;;;0.87;0.87;;;;;;;18.99;27.03;95079.16;5135815;27;20470;-56
2024/01/12 11:09:45;;;;;;;0.60;0.50;;;;;;;19.81;28.54;95086.31;5135083;27;20438;-55
2024/01/12 11:12:27;;;;;;;0.53;0.40;;;;;;;19.57;26.10;95070.13;5134818;27;20439;-56
2024/01/12 11:14:56;;;;;;;0.60;0.60;;;;;;;18.76;25.89;95078.69;5134678;27;20438;-55
2024/01/12 11:17:28;;;;;;;0.80;0.80;;;;;;;18.86;27.26;95064.06;5134600;27;20434;-55
2024/01/12 11:20:09;;;;;;;0.50;0.47;;;;;;;19.10;26.55;95060.75;5135567;27;20430;-55
2024/01/12 11:22:40;;;;;;;1.67;0.93;;;;;;;18.88;27.14;95075.28;5135267;27;20441;-55
2024/01/12 11:25:13;;;;;;;7.20;1.27;;;;;;;17.77;27.45;95072.03;5134237;27;20442;-55
2024/01/12 11:27:43;;;;;;;1.00;0.90;;;;;;;17.86;28.13;95063.16;5135529;27;20574;-54
2024/01/12 11:30:12;;;;;;;1.53;1.50;;;;;;;18.91;26.90;95063.88;5134425;27;20439;-55
2024/01/12 11:32:45;;;;;;;7.73;1.07;;;;;;;18.39;26.96;95023.16;5135137;27;20519;-55
2024/01/12 11:35:16;;;;;;;1.60;0.30;;;;;;;19.92;26.11;95057.91;5133943;27;20438;-55
2024/01/12 11:37:45;;;;;;;0.80;0.80;;;;;;;19.40;25.84;95056.88;5135080;27;20450;-55
2024/01/12 11:40:16;;;;;;;1.33;1.17;;;;;;;18.97;26.22;95052.59;5134285;27;20442;-55
2024/01/12 11:42:48;;;;;;;4.33;1.23;;;;;;;18.73;25.81;95049.78;5134931;27;20444;-55
2024/01/12 11:45:17;;;;;;;0.53;0.53;;;;;;;18.71;26.94;95046.66;5134003;27;20475;-56